createdAt,value
2018-08-24T00:00:34.591Z,43.60
2018-08-24T00:03:03.586Z,39.80
2018-08-24T00:05:32.748Z,47.73
2018-08-24T00:08:02.314Z,47.30
2018-08-24T00:10:31.724Z,45.77
2018-08-24T00:13:00.977Z,38.97
2018-08-24T00:15:30.090Z,42.47
2018-08-24T00:17:59.266Z,39.53
2018-08-24T00:20:28.401Z,36.43
2018-08-24T00:22:57.872Z,45.07
2018-08-24T00:25:27.011Z,45.10
2018-08-24T00:27:55.783Z,40.50
2018-08-24T00:30:24.901Z,41.43
2018-08-24T00:32:53.777Z,42.33
2018-08-24T00:35:22.628Z,39.67
2018-08-24T00:37:52.105Z,41.03
2018-08-24T00:40:20.952Z,34.77
2018-08-24T00:42:50.119Z,33.80
2018-08-24T00:45:19.062Z,35.93
2018-08-24T00:47:48.210Z,35.77
2018-08-24T00:50:17.396Z,32.30
2018-08-24T00:52:46.908Z,35.60
2018-08-24T00:55:16.119Z,39.30
2018-08-24T00:57:45.553Z,36.67
2018-08-24T01:00:14.555Z,39.13
2018-08-24T01:02:43.802Z,39.90
2018-08-24T01:05:13.301Z,45.00
2018-08-24T01:07:48.248Z,44.33
2018-08-24T01:10:22.531Z,45.67
2018-08-24T01:12:51.352Z,44.13
2018-08-24T01:15:20.814Z,49.37
2018-08-24T01:17:55.065Z,46.00
2018-08-24T01:20:28.223Z,46.63
2018-08-24T01:22:57.255Z,52.27
2018-08-24T01:25:26.387Z,48.77
2018-08-24T01:27:55.381Z,46.93
2018-08-24T01:30:24.727Z,47.47
2018-08-24T01:32:54.056Z,48.10
2018-08-24T01:35:23.044Z,50.50
2018-08-24T01:37:51.912Z,51.30
2018-08-24T01:40:21.009Z,51.67
2018-08-24T01:42:50.263Z,51.67
2018-08-24T01:45:19.821Z,56.97
2018-08-24T01:47:48.732Z,60.33
2018-08-24T01:50:17.850Z,55.00
2018-08-24T01:52:47.641Z,56.83
2018-08-24T01:55:16.834Z,55.60
2018-08-24T01:57:45.695Z,55.40
2018-08-24T02:00:15.428Z,62.90
2018-08-24T02:02:46.380Z,61.37
2018-08-24T02:05:15.162Z,63.33
2018-08-24T02:07:43.955Z,63.23
2018-08-24T02:10:18.565Z,63.60
2018-08-24T02:12:52.896Z,66.10
2018-08-24T02:15:23.242Z,79.97
2018-08-24T02:19:01.227Z,77.20
2018-08-24T02:21:35.685Z,86.10
2018-08-24T02:24:04.781Z,93.63
2018-08-24T02:26:33.594Z,99.60
2018-08-24T02:29:02.909Z,90.87
2018-08-24T02:31:36.494Z,81.37
2018-08-24T02:34:05.625Z,81.53
2018-08-24T02:36:34.434Z,63.23
2018-08-24T02:39:04.394Z,57.83
2018-08-24T02:41:33.204Z,58.13
2018-08-24T02:44:02.007Z,56.47
2018-08-24T02:46:31.621Z,55.30
2018-08-24T02:49:01.105Z,45.93
2018-08-24T02:51:31.352Z,42.33
2018-08-24T02:54:01.261Z,42.37
2018-08-24T02:56:30.961Z,43.70
2018-08-24T02:59:00.509Z,39.57
2018-08-24T03:01:29.670Z,40.57
2018-08-24T03:03:58.593Z,38.23
2018-08-24T03:06:28.406Z,34.23
2018-08-24T03:09:00.892Z,38.80
2018-08-24T03:11:30.683Z,36.43
2018-08-24T03:14:00.071Z,38.00
2018-08-24T03:16:29.338Z,36.47
2018-08-24T03:18:58.656Z,37.73
2018-08-24T03:21:27.530Z,36.63
2018-08-24T03:23:56.927Z,35.10
2018-08-24T03:26:26.307Z,35.93
2018-08-24T03:28:55.127Z,37.70
2018-08-24T03:31:24.290Z,39.17
2018-08-24T03:33:53.358Z,33.83
2018-08-24T03:36:22.454Z,36.13
2018-08-24T03:38:51.599Z,34.87
2018-08-24T03:41:20.731Z,30.30
2018-08-24T03:43:49.812Z,30.30
2018-08-24T03:46:19.189Z,29.70
2018-08-24T03:48:48.467Z,32.47
2018-08-24T03:51:17.483Z,34.40
2018-08-24T03:53:46.940Z,31.23
2018-08-24T03:56:16.382Z,31.53
2018-08-24T03:58:45.723Z,28.90
2018-08-24T04:01:14.961Z,30.57
2018-08-24T04:03:44.165Z,26.23
2018-08-24T04:06:13.244Z,25.47
2018-08-24T04:08:42.196Z,26.03
2018-08-24T04:11:11.475Z,25.67
2018-08-24T04:13:40.539Z,25.43
2018-08-24T04:16:09.833Z,24.83
2018-08-24T04:18:38.766Z,23.07
2018-08-24T04:21:07.514Z,19.70
2018-08-24T04:23:36.314Z,21.50
2018-08-24T04:26:05.521Z,20.10
2018-08-24T04:28:34.360Z,19.67
2018-08-24T04:31:03.895Z,22.90
2018-08-24T04:33:33.108Z,18.57
2018-08-24T04:36:02.304Z,19.23
2018-08-24T04:38:31.081Z,20.33
2018-08-24T04:40:59.847Z,19.20
2018-08-24T04:43:28.960Z,19.20
2018-08-24T04:45:58.116Z,25.80
2018-08-24T04:48:26.994Z,19.03
2018-08-24T04:50:56.162Z,18.50
2018-08-24T04:53:25.637Z,17.83
2018-08-24T04:55:55.037Z,17.23
2018-08-24T04:58:24.945Z,18.57
2018-08-24T05:00:54.371Z,21.53
2018-08-24T05:03:24.037Z,15.87
2018-08-24T05:05:53.487Z,17.93
2018-08-24T05:08:22.951Z,15.97
2018-08-24T05:10:51.990Z,18.30
2018-08-24T05:13:21.809Z,17.40
2018-08-24T05:15:50.975Z,16.60
2018-08-24T05:18:19.917Z,16.80
2018-08-24T05:20:48.728Z,16.47
2018-08-24T05:23:18.110Z,17.53
2018-08-24T05:25:47.358Z,18.60
2018-08-24T05:28:16.287Z,18.10
2018-08-24T05:30:45.679Z,25.83
2018-08-24T05:33:14.498Z,15.43
2018-08-24T05:35:43.331Z,18.37
2018-08-24T05:38:12.291Z,21.13
2018-08-24T05:40:41.459Z,15.97
2018-08-24T05:43:10.256Z,23.03
2018-08-24T05:45:39.049Z,17.10
2018-08-24T05:48:08.405Z,17.40
2018-08-24T05:50:37.181Z,18.57
2018-08-24T05:53:07.090Z,16.57
2018-08-24T05:55:36.629Z,15.40
2018-08-24T05:58:06.285Z,17.97
2018-08-24T06:00:38.997Z,18.87
2018-08-24T06:03:09.113Z,18.73
2018-08-24T06:05:44.420Z,16.67
2018-08-24T06:08:13.324Z,15.53
2018-08-24T06:10:42.787Z,21.03
2018-08-24T06:13:15.908Z,20.13
2018-08-24T06:15:45.412Z,20.63
2018-08-24T06:18:14.721Z,17.13
2018-08-24T06:20:44.500Z,21.87
2018-08-24T06:23:14.375Z,18.97
2018-08-24T06:25:43.683Z,20.43
2018-08-24T06:28:31.422Z,19.50
2018-08-24T06:31:04.419Z,21.03
2018-08-24T06:33:56.213Z,18.10
2018-08-24T06:36:58.708Z,20.57
2018-08-24T06:39:54.866Z,17.73
2018-08-24T06:42:33.494Z,25.87
2018-08-24T06:45:07.838Z,21.50
2018-08-24T06:47:37.487Z,21.80
2018-08-24T06:50:07.460Z,21.10
2018-08-24T06:52:39.141Z,24.00
2018-08-24T06:55:08.517Z,16.40
2018-08-24T06:57:37.966Z,19.07
2018-08-24T07:00:08.089Z,19.43
2018-08-24T07:02:39.619Z,17.57
2018-08-24T07:05:10.035Z,15.13
2018-08-24T07:10:51.021Z,15.17
2018-08-24T07:13:20.261Z,17.53
2018-08-24T07:15:49.387Z,15.80
2018-08-24T07:18:18.706Z,12.73
2018-08-24T07:20:48.242Z,16.27
2018-08-24T07:23:17.650Z,13.73
2018-08-24T07:25:48.474Z,11.33
2018-08-24T07:28:17.984Z,12.90
2018-08-24T07:30:47.522Z,12.50
2018-08-24T07:33:17.536Z,10.77
2018-08-24T07:35:47.607Z,8.53
2018-08-24T07:38:17.267Z,10.07
2018-08-24T07:40:46.542Z,8.57
2018-08-24T07:43:16.754Z,7.15
2018-08-24T07:45:46.726Z,9.15
2018-08-24T07:48:16.264Z,8.97
2018-08-24T07:50:46.323Z,9.38
2018-08-24T07:53:16.505Z,9.83
2018-08-24T07:55:46.176Z,10.00
2018-08-24T07:58:15.726Z,8.30
2018-08-24T08:00:45.264Z,8.90
2018-08-24T08:03:15.268Z,10.20
2018-08-24T08:05:44.651Z,11.00
2018-08-24T08:08:13.926Z,7.77
2018-08-24T08:10:42.850Z,9.40
2018-08-24T08:13:12.505Z,9.87
2018-08-24T08:15:41.699Z,7.70
2018-08-24T08:18:14.745Z,9.20
2018-08-24T08:20:44.554Z,9.20
2018-08-24T08:23:14.586Z,8.47
2018-08-24T08:25:44.273Z,11.70
2018-08-24T08:28:13.337Z,11.17
2018-08-24T08:30:42.905Z,9.97
2018-08-24T08:33:13.303Z,10.93
2018-08-24T08:35:42.267Z,11.77
2018-08-24T08:38:11.452Z,12.47
2018-08-24T08:40:41.553Z,10.93
2018-08-24T08:43:11.479Z,12.17
2018-08-24T08:45:40.969Z,12.20
2018-08-24T08:48:11.250Z,11.17
2018-08-24T08:50:40.438Z,13.87
2018-08-24T08:53:11.033Z,10.67
2018-08-24T08:55:40.921Z,10.50
2018-08-24T08:58:10.372Z,9.13
2018-08-24T09:00:39.703Z,9.07
2018-08-24T09:03:09.232Z,9.63
2018-08-24T09:05:38.700Z,9.60
2018-08-24T09:08:08.420Z,9.07
2018-08-24T09:10:37.848Z,8.23
2018-08-24T09:13:07.790Z,10.80
2018-08-24T09:15:36.917Z,8.57
2018-08-24T09:18:12.677Z,5.50
2018-08-24T09:20:47.829Z,4.83
2018-08-24T09:23:22.575Z,4.57
2018-08-24T09:25:57.870Z,3.62
2018-08-24T09:28:36.241Z,5.17
2018-08-24T09:31:13.485Z,4.93
2018-08-24T09:33:46.535Z,4.57
2018-08-24T09:36:18.633Z,6.23
2018-08-24T09:38:48.794Z,3.87
2018-08-24T09:41:18.527Z,5.53
2018-08-24T09:43:53.168Z,3.43
2018-08-24T09:46:27.876Z,4.90
2018-08-24T09:49:02.700Z,6.90
2018-08-24T09:51:33.105Z,5.13
2018-08-24T09:54:09.391Z,2.90
2018-08-24T09:56:40.825Z,2.87
2018-08-24T09:59:12.390Z,3.07
2018-08-24T10:01:47.538Z,5.40
2018-08-24T10:04:22.213Z,3.70
2018-08-24T10:06:56.580Z,3.93
2018-08-24T10:09:25.683Z,6.37
2018-08-24T10:11:54.557Z,4.43
2018-08-24T10:14:24.613Z,3.83
2018-08-24T10:16:53.614Z,4.17
2018-08-24T10:19:22.442Z,3.87
2018-08-24T10:21:51.657Z,4.87
2018-08-24T10:24:22.495Z,4.20
2018-08-24T10:26:52.220Z,5.60
2018-08-24T10:29:21.629Z,4.80
2018-08-24T10:31:50.965Z,4.47
2018-08-24T10:34:20.633Z,6.23
2018-08-24T10:36:50.526Z,4.57
2018-08-24T10:39:19.827Z,5.03
2018-08-24T10:41:49.123Z,6.87
2018-08-24T10:44:18.920Z,7.00
2018-08-24T10:46:48.585Z,5.10
2018-08-24T10:49:19.943Z,5.00
2018-08-24T10:51:49.884Z,6.47
2018-08-24T10:54:19.348Z,5.43
2018-08-24T10:56:49.065Z,4.93
2018-08-24T10:59:18.346Z,5.63
2018-08-24T11:01:48.757Z,4.10
2018-08-24T11:04:18.854Z,3.93
2018-08-24T11:06:48.380Z,4.33
2018-08-24T11:09:18.072Z,5.53
2018-08-24T11:11:48.608Z,5.40
2018-08-24T11:14:18.260Z,9.83
2018-08-24T11:16:48.393Z,4.10
2018-08-24T11:19:18.224Z,6.33
2018-08-24T11:21:47.758Z,7.43
2018-08-24T11:24:17.000Z,5.63
2018-08-24T11:26:46.167Z,3.73
2018-08-24T11:29:15.319Z,5.13
2018-08-24T11:31:44.585Z,3.17
2018-08-24T11:34:13.467Z,4.53
2018-08-24T11:36:42.920Z,4.70
2018-08-24T11:39:11.994Z,3.67
2018-08-24T11:41:41.147Z,3.80
2018-08-24T11:44:10.598Z,6.07
2018-08-24T11:46:39.730Z,5.70
2018-08-24T11:49:09.204Z,6.00
2018-08-24T11:51:39.963Z,5.73
2018-08-24T11:54:09.255Z,4.50
2018-08-24T11:56:38.962Z,5.20
2018-08-24T11:59:08.439Z,4.83
2018-08-24T12:01:38.580Z,5.30
2018-08-24T12:04:09.536Z,5.53
2018-08-24T12:06:39.332Z,4.43
2018-08-24T12:09:10.724Z,7.17
2018-08-24T12:11:40.865Z,6.07
2018-08-24T12:14:10.324Z,6.97
2018-08-24T12:16:42.220Z,3.80
2018-08-24T12:19:13.293Z,4.97
2018-08-24T12:21:43.266Z,7.93
2018-08-24T12:24:14.661Z,4.37
2018-08-24T12:26:44.220Z,4.80
2018-08-24T12:29:15.396Z,6.03
2018-08-24T12:31:44.997Z,7.77
2018-08-24T12:34:13.940Z,5.53
2018-08-24T12:36:42.906Z,5.47
2018-08-24T12:39:13.291Z,5.83
2018-08-24T12:41:42.509Z,6.40
2018-08-24T12:44:13.498Z,6.80
2018-08-24T12:46:43.135Z,6.67
2018-08-24T12:49:14.216Z,9.63
2018-08-24T12:51:43.777Z,7.73
2018-08-24T12:54:12.751Z,7.30
2018-08-24T12:56:42.421Z,8.67
2018-08-24T12:59:11.699Z,8.20
2018-08-24T13:01:41.485Z,7.10
2018-08-24T13:04:11.870Z,7.37
2018-08-24T13:06:42.182Z,7.10
2018-08-24T13:09:13.202Z,7.53
2018-08-24T13:11:43.720Z,9.47
2018-08-24T13:14:13.388Z,6.87
2018-08-24T13:16:42.908Z,9.37
2018-08-24T13:19:12.475Z,8.37
2018-08-24T13:21:43.247Z,7.37
2018-08-24T13:24:13.354Z,9.20
2018-08-24T13:26:43.665Z,7.03
2018-08-24T13:29:13.605Z,6.20
2018-08-24T13:31:43.497Z,8.13
2018-08-24T13:34:14.909Z,7.47
2018-08-24T13:36:44.897Z,5.80
2018-08-24T13:39:14.568Z,6.37
2018-08-24T13:41:45.099Z,8.20
2018-08-24T13:44:15.218Z,6.53
2018-08-24T13:46:45.780Z,6.57
2018-08-24T13:49:15.068Z,7.03
2018-08-24T13:51:44.924Z,8.10
2018-08-24T13:54:14.946Z,7.00
2018-08-24T13:56:51.581Z,6.87
2018-08-24T13:59:21.606Z,6.87
2018-08-24T14:01:51.396Z,8.17
2018-08-24T14:04:22.736Z,8.17
2018-08-24T14:06:52.731Z,8.83
2018-08-24T14:09:22.290Z,6.90
2018-08-24T14:11:52.678Z,9.03
2018-08-24T14:14:22.102Z,7.27
2018-08-24T14:16:51.581Z,6.20
2018-08-24T14:19:21.152Z,7.90
2018-08-24T14:21:50.697Z,7.63
2018-08-24T14:24:20.336Z,6.97
2018-08-24T14:26:50.819Z,6.10
2018-08-24T14:29:20.662Z,8.53
2018-08-24T14:31:56.918Z,8.53
2018-08-24T14:34:27.121Z,6.20
2018-08-24T14:36:56.861Z,8.10
2018-08-24T14:39:26.775Z,7.33
2018-08-24T14:41:55.945Z,6.70
2018-08-24T14:44:25.373Z,5.93
2018-08-24T14:46:55.046Z,8.10
2018-08-24T14:49:25.375Z,7.23
2018-08-24T14:51:55.183Z,7.87
2018-08-24T14:54:24.734Z,6.43
2018-08-24T14:56:54.821Z,7.63
2018-08-24T14:59:24.702Z,6.40
2018-08-24T15:01:54.477Z,8.07
2018-08-24T15:04:24.727Z,8.60
2018-08-24T15:06:54.685Z,6.40
2018-08-24T15:09:23.972Z,9.13
2018-08-24T15:11:53.785Z,9.67
2018-08-24T15:14:22.679Z,8.37
2018-08-24T15:16:52.410Z,6.60
2018-08-24T15:19:21.440Z,12.10
2018-08-24T15:21:50.799Z,9.87
2018-08-24T15:24:19.796Z,8.00
2018-08-24T15:26:49.169Z,7.37
2018-08-24T15:29:18.405Z,6.67
2018-08-24T15:31:48.097Z,6.40
2018-08-24T15:34:17.400Z,7.93
2018-08-24T15:36:46.928Z,7.87
2018-08-24T15:39:20.957Z,7.43
2018-08-24T15:41:50.504Z,6.17
2018-08-24T15:44:19.877Z,7.13
2018-08-24T15:46:48.758Z,7.23
2018-08-24T15:49:18.367Z,8.57
2018-08-24T15:51:47.825Z,7.20
2018-08-24T15:54:17.097Z,7.77
2018-08-24T15:56:46.139Z,8.17
2018-08-24T15:59:15.782Z,6.63
2018-08-24T16:01:45.581Z,9.23
2018-08-24T16:04:16.057Z,9.03
2018-08-24T16:06:45.223Z,6.60
2018-08-24T16:09:14.910Z,9.20
2018-08-24T16:11:43.906Z,7.50
2018-08-24T16:14:13.933Z,9.17
2018-08-24T16:16:44.112Z,9.97
2018-08-24T16:19:14.106Z,10.57
2018-08-24T16:21:43.674Z,8.10
2018-08-24T16:24:12.760Z,12.37
2018-08-24T16:26:42.320Z,7.67
2018-08-24T16:29:12.118Z,8.23
2018-08-24T16:31:41.796Z,7.57
2018-08-24T16:34:11.736Z,6.97
2018-08-24T16:36:41.769Z,8.87
2018-08-24T16:39:11.474Z,9.43
2018-08-24T16:41:41.492Z,8.87
2018-08-24T16:44:11.294Z,8.90
2018-08-24T16:46:42.119Z,7.77
2018-08-24T16:49:11.985Z,5.67
2018-08-24T16:51:41.804Z,11.10
2018-08-24T16:54:11.571Z,8.53
2018-08-24T16:56:40.941Z,5.97
2018-08-24T16:59:10.290Z,7.03
2018-08-24T17:01:40.910Z,7.17
2018-08-24T17:04:10.685Z,9.07
2018-08-24T17:06:40.526Z,8.60
2018-08-24T17:09:11.377Z,8.57
2018-08-24T17:11:41.407Z,6.67
2018-08-24T17:14:11.332Z,8.77
2018-08-24T17:16:40.795Z,8.03
2018-08-24T17:19:10.260Z,6.90
2018-08-24T17:21:39.986Z,5.40
2018-08-24T17:24:09.426Z,7.00
2018-08-24T17:26:39.170Z,7.27
2018-08-24T17:29:09.100Z,7.43
2018-08-24T17:31:40.703Z,6.33
2018-08-24T17:34:10.391Z,6.37
2018-08-24T17:36:39.325Z,6.50
2018-08-24T17:39:10.637Z,6.63
2018-08-24T17:41:40.316Z,5.00
2018-08-24T17:44:09.924Z,5.77
2018-08-24T17:46:39.536Z,6.43
2018-08-24T17:49:08.981Z,6.03
2018-08-24T17:51:38.045Z,6.53
2018-08-24T17:54:07.266Z,5.40
2018-08-24T17:56:37.592Z,6.87
2018-08-24T17:59:07.961Z,5.00
2018-08-24T18:01:38.091Z,6.03
2018-08-24T18:04:07.898Z,5.17
2018-08-24T18:06:37.740Z,6.10
2018-08-24T18:09:09.814Z,6.47
2018-08-24T18:11:40.255Z,7.10
2018-08-24T18:14:10.277Z,5.17
2018-08-24T18:16:39.992Z,5.00
2018-08-24T18:19:10.296Z,7.07
2018-08-24T18:21:39.753Z,4.23
2018-08-24T18:24:14.636Z,5.03
2018-08-24T18:26:43.732Z,4.67
2018-08-24T18:29:12.659Z,5.03
2018-08-24T18:31:42.231Z,6.07
2018-08-24T18:34:11.069Z,4.43
2018-08-24T18:36:40.575Z,5.47
2018-08-24T18:39:11.870Z,5.30
2018-08-24T18:41:41.308Z,5.33
2018-08-24T18:44:11.007Z,5.13
2018-08-24T18:46:40.786Z,6.03
2018-08-24T18:49:10.066Z,3.80
2018-08-24T18:51:41.000Z,4.20
2018-08-24T18:54:11.148Z,5.97
2018-08-24T18:56:42.736Z,5.33
2018-08-24T18:59:12.424Z,4.90
2018-08-24T19:01:42.296Z,4.97
2018-08-24T19:04:12.549Z,5.57
2018-08-24T19:06:43.432Z,4.37
2018-08-24T19:09:13.083Z,3.83
2018-08-24T19:11:47.786Z,6.07
2018-08-24T19:14:16.720Z,6.43
2018-08-24T19:16:45.936Z,3.67
2018-08-24T19:19:20.546Z,5.77
2018-08-24T19:21:50.640Z,6.37
2018-08-24T19:24:20.108Z,4.40
2018-08-24T19:26:49.338Z,4.17
2018-08-24T19:29:23.905Z,5.00
2018-08-24T19:31:53.167Z,3.23
2018-08-24T19:34:22.425Z,6.37
2018-08-24T19:36:51.418Z,4.93
2018-08-24T19:39:21.117Z,6.83
2018-08-24T19:41:56.407Z,5.17
2018-08-24T19:44:25.402Z,3.73
2018-08-24T19:46:54.616Z,4.63
2018-08-24T19:49:23.697Z,5.90
2018-08-24T19:51:53.224Z,6.40
2018-08-24T19:54:22.775Z,8.23
2018-08-24T19:56:52.286Z,11.53
2018-08-24T19:59:21.340Z,11.43
2018-08-24T20:01:51.623Z,9.90
2018-08-24T20:04:20.968Z,6.57
2018-08-24T20:06:55.578Z,6.57
2018-08-24T20:09:30.047Z,5.67
2018-08-24T20:11:59.181Z,6.37
2018-08-24T20:14:33.581Z,7.87
2018-08-24T20:17:08.528Z,6.07
2018-08-24T20:19:38.206Z,5.60
2018-08-24T20:22:09.308Z,5.03
2018-08-24T20:24:38.885Z,6.37
2018-08-24T20:27:08.169Z,6.57
2018-08-24T20:29:37.983Z,5.23
2018-08-24T20:32:08.398Z,5.33
2018-08-24T20:34:38.084Z,5.00
2018-08-24T20:37:07.939Z,5.40
2018-08-24T20:39:37.867Z,5.17
2018-08-24T20:42:07.723Z,5.13
2018-08-24T20:44:37.152Z,6.53
2018-08-24T20:47:06.990Z,5.70
2018-08-24T20:49:36.967Z,8.63
2018-08-24T20:52:06.258Z,7.63
2018-08-24T20:54:36.092Z,9.50
2018-08-24T20:57:06.942Z,10.23
2018-08-24T20:59:36.810Z,7.73
2018-08-24T21:02:07.956Z,5.47
2018-08-24T21:04:38.098Z,5.77
2018-08-24T21:07:08.963Z,6.40
2018-08-24T21:09:38.533Z,5.00
2018-08-24T21:12:08.619Z,6.17
2018-08-24T21:14:38.817Z,4.87
2018-08-24T21:17:09.590Z,5.53
2018-08-24T21:19:38.992Z,7.63
2018-08-24T21:22:09.301Z,5.37
2018-08-24T21:24:38.835Z,4.40
2018-08-24T21:27:08.128Z,4.53
2018-08-24T21:29:37.513Z,5.90
2018-08-24T21:32:07.433Z,3.53
2018-08-24T21:34:36.820Z,6.03
2018-08-24T21:37:07.398Z,5.90
2018-08-24T21:39:37.667Z,4.20
2018-08-24T21:42:08.069Z,4.33
2018-08-24T21:44:38.198Z,3.60
2018-08-24T21:47:08.583Z,5.17
2018-08-24T21:49:38.395Z,5.23
2018-08-24T21:52:08.191Z,3.70
2018-08-24T21:54:38.130Z,4.47
2018-08-24T21:57:07.797Z,5.63
2018-08-24T21:59:38.242Z,3.77
2018-08-24T22:02:08.061Z,4.27
2018-08-24T22:04:39.220Z,4.97
2018-08-24T22:07:08.973Z,3.77
2018-08-24T22:09:38.328Z,6.50
2018-08-24T22:12:08.327Z,4.50
2018-08-24T22:14:37.781Z,4.10
2018-08-24T22:17:07.156Z,4.33
2018-08-24T22:19:36.213Z,5.07
2018-08-24T22:22:07.606Z,5.23
2018-08-24T22:24:37.413Z,4.13
2018-08-24T22:27:08.305Z,3.63
2018-08-24T22:29:38.293Z,3.10
2018-08-24T22:32:08.561Z,3.90
2018-08-24T22:34:38.152Z,3.40
2018-08-24T22:37:07.610Z,4.20
2018-08-24T22:39:37.865Z,4.03
2018-08-24T22:42:07.770Z,3.53
2018-08-24T22:44:38.050Z,2.63
2018-08-24T22:47:07.583Z,3.17
2018-08-24T22:49:36.564Z,2.67
2018-08-24T22:52:06.590Z,4.70
2018-08-24T22:54:36.141Z,2.47
2018-08-24T22:57:06.154Z,6.57
2018-08-24T22:59:36.354Z,2.63
2018-08-24T23:02:05.549Z,3.03
2018-08-24T23:04:35.721Z,2.97
2018-08-24T23:07:05.636Z,3.33
2018-08-24T23:09:34.920Z,3.30
2018-08-24T23:12:05.218Z,3.80
2018-08-24T23:14:35.108Z,3.83
2018-08-24T23:17:04.734Z,2.53
2018-08-24T23:19:36.093Z,3.30
2018-08-24T23:22:05.942Z,4.30
2018-08-24T23:24:36.143Z,1.93
2018-08-24T23:27:06.959Z,3.40
2018-08-24T23:29:36.272Z,3.57
2018-08-24T23:32:06.459Z,3.80
2018-08-24T23:34:37.110Z,5.77
2018-08-24T23:37:07.239Z,3.60
2018-08-24T23:39:37.116Z,3.27
2018-08-24T23:42:07.636Z,4.23
2018-08-24T23:44:37.900Z,2.83
2018-08-24T23:47:07.223Z,6.77
2018-08-24T23:49:38.160Z,4.83
2018-08-24T23:52:07.627Z,3.03
2018-08-24T23:54:37.184Z,1.73
2018-08-24T23:57:07.566Z,2.70
2018-08-24T23:59:37.479Z,2.47
